Time;durP1;ratioP1;P1;durP2;ratioP2;P2;SDS_P1;SDS_P2;PMS_P1;PMS_P2;Temp;Humidity;BMP_temperature;BMP_pressure;BME280_temperature;BME280_humidity;BME280_pressure;Samples;Min_cycle;Max_cycle;Signal;HPM_P1;HPM_P2
2023/01/30 00:00:28;;;;;;;27.25;19.10;;;6.60;99.90;;;;;;4948491;28;20043;-65
2023/01/30 00:02:54;;;;;;;29.35;19.83;;;6.10;99.90;;;;;;4948054;28;20044;-64
2023/01/30 00:05:19;;;;;;;28.98;20.98;;;5.90;99.90;;;;;;4962819;28;20047;-63
2023/01/30 00:07:46;;;;;;;26.80;19.27;;;6.50;99.90;;;;;;4948232;28;20492;-64
2023/01/30 00:10:12;;;;;;;24.70;18.13;;;5.60;99.90;;;;;;4947704;28;20731;-63
2023/01/30 00:12:37;;;;;;;24.92;17.25;;;6.50;99.90;;;;;;4947766;28;20051;-64
2023/01/30 00:15:05;;;;;;;27.63;20.95;;;6.20;99.90;;;;;;4931291;29;20094;-62
2023/01/30 00:17:30;;;;;;;26.30;18.25;;;5.70;99.90;;;;;;4948148;28;20448;-63
2023/01/30 00:19:56;;;;;;;26.05;17.67;;;5.70;99.90;;;;;;4947972;28;20047;-64
2023/01/30 00:22:22;;;;;;;24.75;14.35;;;5.80;99.90;;;;;;4948296;29;20397;-65
2023/01/30 00:24:47;;;;;;;24.85;19.23;;;5.70;99.90;;;;;;4930363;29;20051;-57
2023/01/30 00:27:13;;;;;;;29.33;17.58;;;6.30;99.90;;;;;;4946522;28;20079;-61
2023/01/30 00:29:39;;;;;;;24.20;18.27;;;5.70;99.90;;;;;;4947356;28;20502;-61
2023/01/30 00:32:04;;;;;;;27.20;19.35;;;6.00;99.90;;;;;;4947564;29;20122;-60
2023/01/30 00:34:30;;;;;;;24.48;15.55;;;6.60;99.90;;;;;;4930941;29;20043;-64
2023/01/30 00:36:56;;;;;;;26.15;18.30;;;6.60;99.90;;;;;;4947290;29;20054;-64
2023/01/30 00:39:21;;;;;;;26.50;18.23;;;5.80;99.90;;;;;;4948042;28;20047;-60
2023/01/30 00:47:15;;;;;;;22.92;15.77;;;6.70;99.90;;;;;;4957143;28;20051;-64
2023/01/30 00:49:41;;;;;;;20.15;12.63;;;5.80;99.90;;;;;;4966470;28;20051;-66
2023/01/30 00:52:07;;;;;;;24.85;14.13;;;6.50;99.90;;;;;;4966613;28;20138;-61
2023/01/30 00:54:33;;;;;;;18.83;12.32;;;6.00;99.90;;;;;;4948937;28;20101;-65
2023/01/30 00:56:58;;;;;;;19.73;12.95;;;6.70;99.90;;;;;;4964843;28;20042;-64
2023/01/30 00:59:25;;;;;;;23.60;12.98;;;7.20;99.90;;;;;;4966124;28;20471;-60
2023/01/30 01:01:51;;;;;;;15.82;10.15;;;6.10;99.90;;;;;;4966876;28;20134;-65
2023/01/30 01:04:17;;;;;;;20.83;12.82;;;7.00;99.90;;;;;;4966233;28;20051;-62
2023/01/30 01:06:42;;;;;;;18.52;12.13;;;6.30;99.90;;;;;;4966867;28;20494;-62
2023/01/30 01:09:08;;;;;;;22.50;12.75;;;7.00;99.90;;;;;;4967428;28;20476;-63
2023/01/30 01:11:34;;;;;;;22.60;13.70;;;6.90;99.90;;;;;;4966083;28;20507;-59
2023/01/30 01:14:02;;;;;;;21.63;13.75;;;5.80;99.90;;;;;;4966347;28;20112;-63
2023/01/30 01:16:28;;;;;;;19.52;12.43;;;5.90;99.90;;;;;;4966605;28;20078;-63
2023/01/30 01:18:54;;;;;;;20.45;12.82;;;6.40;99.90;;;;;;4966868;28;20042;-62
2023/01/30 01:21:20;;;;;;;14.77;10.57;;;5.70;99.90;;;;;;4966247;28;20427;-64
2023/01/30 01:23:57;;;;;;;20.65;12.88;;;6.40;99.90;;;;;;4966844;28;20031;-63
2023/01/30 01:26:23;;;;;;;22.10;14.07;;;6.20;99.90;;;;;;4965951;28;20467;-64
2023/01/30 01:28:52;;;;;;;24.40;13.02;;;6.70;99.90;;;;;;4966149;28;20043;-56
2023/01/30 01:31:18;;;;;;;22.48;13.85;;;6.50;99.90;;;;;;4967106;28;20403;-64
2023/01/30 01:33:44;;;;;;;22.27;12.55;;;5.80;99.90;;;;;;4966966;28;20122;-60
2023/01/30 01:36:09;;;;;;;23.23;13.63;;;7.10;99.90;;;;;;4949113;28;20051;-65
2023/01/30 01:38:35;;;;;;;22.73;12.25;;;6.40;99.90;;;;;;4981740;28;20539;-64
2023/01/30 01:41:01;;;;;;;16.00;10.15;;;6.50;99.90;;;;;;4965527;28;20601;-60
2023/01/30 01:43:35;;;;;;;22.23;13.10;;;5.80;99.90;;;;;;4966041;28;20064;-65
2023/01/30 01:46:04;;;;;;;20.52;12.68;;;6.40;99.90;;;;;;4960266;28;20047;-62
2023/01/30 01:48:43;;;;;;;19.35;11.73;;;6.40;99.90;;;;;;4952743;28;20370;-63
2023/01/30 01:51:24;;;;;;;18.98;11.10;;;6.40;99.90;;;;;;4947504;28;20441;-63
2023/01/30 01:53:55;;;;;;;17.90;10.82;;;6.00;99.90;;;;;;4946834;29;20047;-63
2023/01/30 01:56:21;;;;;;;14.05;8.80;;;5.60;99.90;;;;;;4946167;28;20051;-63
2023/01/30 01:58:51;;;;;;;12.70;6.75;;;5.80;99.90;;;;;;4947226;28;20062;-58
2023/01/30 02:01:17;;;;;;;12.80;8.57;;;5.80;99.90;;;;;;4947038;29;20047;-62
2023/01/30 02:03:49;;;;;;;13.65;8.00;;;6.30;99.90;;;;;;5040036;23;20141;-59
2023/01/30 02:06:17;;;;;;;12.45;7.38;;;5.60;99.90;;;;;;4978452;28;20039;-63
2023/01/30 02:09:04;;;;;;;11.07;6.32;;;5.80;99.90;;;;;;4985734;28;20117;-64
2023/01/30 02:11:54;;;;;;;8.25;5.13;;;6.60;99.90;;;;;;5002863;28;20049;-62
2023/01/30 02:14:21;;;;;;;12.93;6.43;;;6.70;99.90;;;;;;4991466;28;20084;-63
2023/01/30 02:16:46;;;;;;;10.40;5.88;;;6.60;99.90;;;;;;5008586;28;20046;-63
2023/01/30 02:19:38;;;;;;;13.00;6.43;;;6.70;99.90;;;;;;5009093;28;20132;-57
2023/01/30 02:22:36;;;;;;;10.38;5.63;;;5.90;99.90;;;;;;4997267;28;20056;-58
2023/01/30 02:25:30;;;;;;;9.23;5.20;;;6.60;99.90;;;;;;5007733;28;20042;-59
2023/01/30 02:28:32;;;;;;;12.60;6.10;;;6.50;99.90;;;;;;5007695;28;20502;-63
2023/01/30 02:31:15;;;;;;;9.63;6.13;;;6.30;99.90;;;;;;5007999;28;20045;-61
2023/01/30 02:34:15;;;;;;;10.65;5.85;;;6.90;99.90;;;;;;5009142;28;20113;-65
2023/01/30 02:37:01;;;;;;;10.32;6.20;;;5.70;99.90;;;;;;5008920;28;20037;-56
2023/01/30 02:39:56;;;;;;;12.15;6.68;;;5.70;99.90;;;;;;5007429;28;20085;-59
2023/01/30 02:42:37;;;;;;;18.70;7.68;;;6.60;99.90;;;;;;5008533;28;20050;-64
2023/01/30 02:45:15;;;;;;;13.13;7.47;;;6.10;99.90;;;;;;5003322;28;20046;-62
2023/01/30 02:47:50;;;;;;;15.60;7.88;;;6.10;99.90;;;;;;4960340;28;20039;-59
2023/01/30 02:50:20;;;;;;;21.58;8.93;;;5.80;99.90;;;;;;4968621;28;20045;-59
2023/01/30 02:52:47;;;;;;;16.40;8.65;;;6.70;99.90;;;;;;4969630;28;20113;-64
2023/01/30 02:55:26;;;;;;;22.30;8.52;;;6.90;99.90;;;;;;4969166;28;20115;-64
2023/01/30 02:57:52;;;;;;;19.50;8.85;;;6.20;99.90;;;;;;4952050;28;20045;-61
2023/01/30 03:00:25;;;;;;;21.65;8.77;;;6.50;99.90;;;;;;4969172;28;20614;-62
2023/01/30 03:03:29;;;;;;;20.95;8.55;;;7.10;99.90;;;;;;4969209;28;20049;-64
2023/01/30 03:06:16;;;;;;;23.70;8.85;;;6.30;99.90;;;;;;4949654;29;20055;-60
2023/01/30 03:09:05;;;;;;;27.20;8.98;;;5.90;99.90;;;;;;4950152;29;20077;-64
2023/01/30 03:12:06;;;;;;;21.27;7.57;;;7.40;99.90;;;;;;4948759;29;20493;-58
2023/01/30 03:15:06;;;;;;;20.27;7.60;;;6.20;99.90;;;;;;4752763;23;22101;-56
2023/01/30 03:17:33;;;;;;;23.10;6.88;;;6.00;99.90;;;;;;4962440;28;20050;-57
2023/01/30 03:19:59;;;;;;;21.95;7.28;;;6.40;99.90;;;;;;4964800;28;20050;-64
2023/01/30 03:22:25;;;;;;;22.48;8.15;;;7.20;99.90;;;;;;4989136;28;20129;-63
2023/01/30 03:24:53;;;;;;;24.45;6.22;;;6.40;99.90;;;;;;4990533;28;20121;-63
2023/01/30 03:27:20;;;;;;;22.33;5.95;;;6.10;99.90;;;;;;4990675;28;20057;-62
2023/01/30 03:29:46;;;;;;;16.73;6.47;;;7.30;99.90;;;;;;4990268;28;20534;-65
2023/01/30 03:32:11;;;;;;;26.75;6.28;;;7.30;99.90;;;;;;4989371;28;20131;-60
2023/01/30 03:34:37;;;;;;;19.38;5.53;;;6.80;99.90;;;;;;4990261;28;20459;-63
2023/01/30 03:37:04;;;;;;;18.92;6.00;;;6.20;99.90;;;;;;4988945;28;20042;-64
2023/01/30 03:39:30;;;;;;;20.75;5.32;;;6.70;99.90;;;;;;4990512;28;20046;-63
2023/01/30 03:41:55;;;;;;;20.55;5.50;;;7.20;99.90;;;;;;4990042;28;20057;-62
2023/01/30 03:44:21;;;;;;;22.65;5.57;;;6.80;99.90;;;;;;4981728;28;20061;-64
2023/01/30 03:46:47;;;;;;;17.17;4.60;;;6.30;99.90;;;;;;4963757;28;20046;-64
2023/01/30 03:49:12;;;;;;;24.15;5.47;;;6.80;99.90;;;;;;4965906;28;20392;-64
2023/01/30 03:51:38;;;;;;;21.10;5.95;;;6.20;99.90;;;;;;4951380;29;20078;-64
2023/01/30 03:54:04;;;;;;;19.50;4.88;;;6.40;99.90;;;;;;4934891;29;20054;-57
2023/01/30 03:56:30;;;;;;;21.02;5.07;;;6.10;99.90;;;;;;4951694;29;20127;-60
2023/01/30 03:58:56;;;;;;;21.10;4.50;;;6.60;99.90;;;;;;4951777;29;20178;-64
2023/01/30 04:01:21;;;;;;;18.85;4.30;;;6.10;99.90;;;;;;4950561;29;20118;-64
2023/01/30 04:03:47;;;;;;;21.52;4.43;;;6.80;99.90;;;;;;4950073;29;20051;-60
2023/01/30 04:06:13;;;;;;;21.30;4.40;;;6.00;99.90;;;;;;4951167;29;20058;-64
2023/01/30 04:08:38;;;;;;;23.02;4.35;;;6.60;99.90;;;;;;4951432;29;20039;-63
2023/01/30 04:11:04;;;;;;;22.98;4.50;;;5.90;99.90;;;;;;4951000;29;20054;-59
2023/01/30 04:13:30;;;;;;;20.35;4.55;;;6.00;99.90;;;;;;4951144;29;20047;-62
2023/01/30 04:16:17;;;;;;;19.10;4.43;;;6.80;99.90;;;;;;4958155;28;20050;-65
2023/01/30 04:18:43;;;;;;;23.90;4.82;;;6.20;99.90;;;;;;4969779;28;20050;-64
2023/01/30 04:21:08;;;;;;;19.65;4.57;;;6.00;99.90;;;;;;4970017;28;20046;-64
2023/01/30 04:23:34;;;;;;;27.48;5.18;;;6.20;99.90;;;;;;4970333;28;20499;-63
2023/01/30 04:26:00;;;;;;;25.00;4.35;;;5.70;99.90;;;;;;4969730;28;20046;-61
2023/01/30 04:28:25;;;;;;;25.15;4.95;;;6.20;99.90;;;;;;4969431;28;20050;-63
2023/01/30 04:30:54;;;;;;;23.17;5.30;;;6.50;99.90;;;;;;4969065;28;20051;-64
2023/01/30 04:33:20;;;;;;;22.13;4.55;;;6.20;99.90;;;;;;4969214;28;20099;-65
2023/01/30 04:35:58;;;;;;;19.33;4.22;;;5.80;99.90;;;;;;4969768;28;20054;-65
2023/01/30 04:38:26;;;;;;;20.00;4.38;;;5.60;99.90;;;;;;4969515;28;20051;-65
2023/01/30 04:40:54;;;;;;;23.83;4.25;;;5.80;99.90;;;;;;4969871;28;20125;-65
2023/01/30 04:43:22;;;;;;;22.67;4.32;;;6.10;99.90;;;;;;4969615;28;20126;-63
2023/01/30 04:45:49;;;;;;;24.80;4.82;;;6.30;99.90;;;;;;4971490;28;20045;-63
2023/01/30 04:48:15;;;;;;;22.90;4.10;;;5.50;99.90;;;;;;4976457;28;20376;-63
2023/01/30 04:50:42;;;;;;;21.10;4.07;;;6.00;99.90;;;;;;4969401;28;20109;-63
2023/01/30 04:53:08;;;;;;;18.60;3.83;;;6.00;99.90;;;;;;4969330;28;20069;-63
2023/01/30 04:55:34;;;;;;;21.42;4.18;;;5.80;99.90;;;;;;4969594;28;20482;-65
2023/01/30 04:58:00;;;;;;;26.25;4.65;;;5.50;99.90;;;;;;4969220;28;20130;-64
2023/01/30 05:00:26;;;;;;;25.33;4.60;;;5.80;99.90;;;;;;4968936;28;20761;-63
2023/01/30 05:02:54;;;;;;;26.17;4.53;;;5.70;99.90;;;;;;4951871;28;20105;-63
2023/01/30 05:05:24;;;;;;;18.48;3.88;;;5.50;99.90;;;;;;4969092;28;20097;-63
2023/01/30 05:07:50;;;;;;;19.20;4.25;;;5.60;99.90;;;;;;4951391;28;20080;-58
2023/01/30 05:10:16;;;;;;;19.92;4.07;;;6.10;99.90;;;;;;4969685;28;20050;-64
2023/01/30 05:12:42;;;;;;;25.48;4.65;;;5.50;99.90;;;;;;4969353;28;20047;-61
2023/01/30 05:15:08;;;;;;;26.77;4.40;;;5.80;99.90;;;;;;4968695;28;20098;-61
2023/01/30 05:17:34;;;;;;;23.17;4.80;;;5.70;99.90;;;;;;4969460;28;20066;-60
2023/01/30 05:20:00;;;;;;;18.38;4.95;;;5.40;99.90;;;;;;4968868;28;20051;-63
2023/01/30 05:22:25;;;;;;;24.65;4.95;;;5.60;99.90;;;;;;4969197;28;20050;-64
2023/01/30 05:24:51;;;;;;;22.67;4.35;;;5.70;99.90;;;;;;4968980;28;20435;-63
2023/01/30 05:27:17;;;;;;;24.83;4.63;;;5.30;99.90;;;;;;4968906;28;20105;-63
2023/01/30 05:29:43;;;;;;;22.55;4.53;;;5.30;99.90;;;;;;4983374;28;20057;-64
2023/01/30 05:32:15;;;;;;;29.23;4.78;;;5.80;99.90;;;;;;4968992;28;20117;-64
2023/01/30 05:34:41;;;;;;;23.33;5.13;;;5.80;99.90;;;;;;4968952;28;20100;-56
2023/01/30 05:37:07;;;;;;;27.33;5.13;;;5.70;99.90;;;;;;4969235;28;20619;-64
2023/01/30 05:39:33;;;;;;;26.85;4.93;;;5.80;99.90;;;;;;4969022;28;20046;-64
2023/01/30 05:41:59;;;;;;;29.23;4.75;;;5.30;99.90;;;;;;4968838;28;20547;-63
2023/01/30 05:44:24;;;;;;;27.10;4.93;;;6.20;99.90;;;;;;4971977;28;20487;-64
2023/01/30 05:46:50;;;;;;;24.08;4.57;;;5.80;99.90;;;;;;4982667;28;20042;-64
2023/01/30 05:49:16;;;;;;;27.45;5.25;;;5.80;99.90;;;;;;4972817;28;20047;-63
2023/01/30 05:51:41;;;;;;;25.67;5.90;;;5.80;99.90;;;;;;4972715;28;20043;-64
2023/01/30 05:54:07;;;;;;;24.65;4.55;;;5.50;99.90;;;;;;4973046;28;20194;-62
2023/01/30 05:56:33;;;;;;;26.15;4.30;;;6.30;99.90;;;;;;4985604;28;20049;-64
2023/01/30 05:59:00;;;;;;;28.65;4.93;;;5.60;99.90;;;;;;4992267;28;20113;-63
2023/01/30 06:01:27;;;;;;;23.83;4.60;;;5.80;99.90;;;;;;4991243;28;20066;-64
2023/01/30 06:03:53;;;;;;;26.77;5.40;;;5.50;99.90;;;;;;4974416;28;20498;-64
2023/01/30 06:06:19;;;;;;;24.42;4.80;;;5.60;99.90;;;;;;4991826;28;20503;-60
2023/01/30 06:08:45;;;;;;;26.85;5.38;;;5.50;99.90;;;;;;4991898;28;20040;-63
2023/01/30 06:11:14;;;;;;;27.50;5.28;;;5.70;99.90;;;;;;4991981;28;20058;-62
2023/01/30 06:13:40;;;;;;;25.05;4.82;;;5.20;99.90;;;;;;4992302;28;20060;-61
2023/01/30 06:16:07;;;;;;;26.35;5.20;;;5.30;99.90;;;;;;4990886;28;20089;-63
2023/01/30 06:18:34;;;;;;;27.35;4.95;;;5.90;99.90;;;;;;4991896;28;20133;-63
2023/01/30 06:21:00;;;;;;;23.02;5.38;;;5.70;99.90;;;;;;4991393;28;20057;-62
2023/01/30 06:23:26;;;;;;;27.38;5.20;;;5.70;99.90;;;;;;4991476;28;20056;-60
2023/01/30 06:25:52;;;;;;;25.17;4.32;;;5.80;99.90;;;;;;4991635;28;20046;-61
2023/01/30 06:28:21;;;;;;;30.35;4.85;;;5.70;99.90;;;;;;4991478;28;20368;-63
2023/01/30 06:30:47;;;;;;;28.13;5.15;;;5.70;99.90;;;;;;4990349;28;20427;-63
2023/01/30 06:33:13;;;;;;;30.70;5.55;;;5.70;99.90;;;;;;4991858;28;20065;-62
2023/01/30 06:35:40;;;;;;;26.33;4.53;;;5.70;99.90;;;;;;4991407;28;20057;-56
2023/01/30 06:38:10;;;;;;;23.92;4.35;;;5.20;99.90;;;;;;4991302;28;20089;-63
2023/01/30 06:40:45;;;;;;;22.23;4.50;;;5.60;99.90;;;;;;4990889;28;20615;-63
2023/01/30 06:43:11;;;;;;;27.63;5.15;;;5.20;99.90;;;;;;4991077;28;20471;-59
2023/01/30 06:45:37;;;;;;;21.45;4.20;;;5.60;99.90;;;;;;4985104;28;20035;-63
2023/01/30 06:48:03;;;;;;;22.55;4.45;;;5.20;99.90;;;;;;4980224;28;20105;-63
2023/01/30 06:50:30;;;;;;;23.02;4.50;;;5.30;99.90;;;;;;4971520;28;20054;-62
2023/01/30 06:52:56;;;;;;;31.05;4.68;;;5.50;99.90;;;;;;4971624;28;20254;-58
2023/01/30 06:55:24;;;;;;;28.90;5.07;;;5.40;99.90;;;;;;4970651;28;20121;-62
2023/01/30 06:58:10;;;;;;;30.02;4.50;;;5.40;99.90;;;;;;4971459;28;20047;-63
2023/01/30 07:00:38;;;;;;;22.63;3.97;;;5.50;99.90;;;;;;4970680;28;20526;-63
2023/01/30 07:03:05;;;;;;;23.27;4.18;;;5.30;99.90;;;;;;4971151;28;20057;-59
2023/01/30 07:05:30;;;;;;;26.65;4.70;;;5.60;99.90;;;;;;4971067;28;20046;-60
2023/01/30 07:07:56;;;;;;;25.40;4.50;;;5.70;99.90;;;;;;4970347;28;20589;-61
2023/01/30 07:10:22;;;;;;;26.98;4.90;;;5.50;99.90;;;;;;4971300;28;20088;-63
2023/01/30 07:12:48;;;;;;;23.27;3.90;;;5.30;99.90;;;;;;4971067;28;20118;-60
2023/01/30 07:15:14;;;;;;;29.42;5.20;;;5.60;99.90;;;;;;4970555;28;20097;-62
2023/01/30 07:17:42;;;;;;;23.38;4.80;;;5.40;99.90;;;;;;4971078;28;20050;-61
2023/01/30 07:20:10;;;;;;;23.60;4.30;;;5.60;99.90;;;;;;4971150;28;20057;-60
2023/01/30 07:22:36;;;;;;;26.67;5.78;;;5.50;99.90;;;;;;4954105;28;20368;-58
2023/01/30 07:25:01;;;;;;;25.05;4.70;;;5.90;99.90;;;;;;4970957;28;20049;-63
2023/01/30 07:27:27;;;;;;;24.73;4.70;;;5.40;99.90;;;;;;4970274;28;20045;-62
2023/01/30 07:29:53;;;;;;;29.33;4.63;;;5.40;99.90;;;;;;4970257;28;20407;-63
2023/01/30 07:32:19;;;;;;;29.95;5.05;;;5.50;99.90;;;;;;4970579;28;20086;-61
2023/01/30 07:34:45;;;;;;;19.73;4.55;;;5.60;99.90;;;;;;4970998;28;20043;-61
2023/01/30 07:37:11;;;;;;;20.75;4.72;;;5.50;99.90;;;;;;4970780;28;20051;-62
2023/01/30 07:39:37;;;;;;;26.10;5.20;;;5.80;99.90;;;;;;4970800;28;20073;-61
2023/01/30 07:42:03;;;;;;;29.73;4.47;;;5.80;99.90;;;;;;4971098;28;20506;-62
2023/01/30 07:44:29;;;;;;;25.33;5.13;;;5.60;99.90;;;;;;4970308;28;20439;-63
2023/01/30 07:46:54;;;;;;;31.40;5.50;;;5.50;99.90;;;;;;4981918;28;20050;-62
2023/01/30 07:49:20;;;;;;;27.85;5.03;;;5.60;99.90;;;;;;4970335;28;20126;-60
2023/01/30 07:51:45;;;;;;;29.33;5.47;;;5.50;99.90;;;;;;4971116;28;20763;-60
2023/01/30 07:54:11;;;;;;;24.00;5.00;;;5.80;99.90;;;;;;4970525;28;20090;-61
2023/01/30 07:56:37;;;;;;;24.90;5.22;;;5.60;99.90;;;;;;4970913;28;20050;-61
2023/01/30 07:59:04;;;;;;;22.83;4.80;;;5.60;99.90;;;;;;4970699;28;20069;-61
2023/01/30 08:01:30;;;;;;;35.50;5.43;;;5.90;99.90;;;;;;4969433;28;20077;-59
2023/01/30 08:03:56;;;;;;;29.48;5.15;;;5.80;99.90;;;;;;4953180;28;20058;-62
2023/01/30 08:06:22;;;;;;;21.50;4.45;;;5.70;99.90;;;;;;4969452;28;20046;-59
2023/01/30 08:08:48;;;;;;;29.48;5.50;;;5.70;99.90;;;;;;4970557;28;20583;-61
2023/01/30 08:11:13;;;;;;;23.65;4.88;;;6.00;99.90;;;;;;4969618;28;20063;-61
2023/01/30 08:13:39;;;;;;;28.33;5.40;;;5.90;99.90;;;;;;4968886;28;20057;-62
2023/01/30 08:16:06;;;;;;;28.20;5.05;;;6.10;99.90;;;;;;4969171;28;20070;-61
2023/01/30 08:18:33;;;;;;;28.10;5.90;;;5.90;99.90;;;;;;4984865;28;20054;-62
2023/01/30 08:21:01;;;;;;;26.60;5.50;;;6.00;99.90;;;;;;4969396;28;20058;-62
2023/01/30 08:23:27;;;;;;;25.08;4.90;;;6.10;99.90;;;;;;4969791;28;20134;-62
2023/01/30 08:26:01;;;;;;;23.92;5.03;;;5.80;99.90;;;;;;4969603;28;20130;-62
2023/01/30 08:28:28;;;;;;;24.27;5.30;;;5.90;99.90;;;;;;4969675;28;20500;-59
2023/01/30 08:30:54;;;;;;;22.02;5.15;;;6.10;99.90;;;;;;4969015;28;20053;-61
2023/01/30 08:33:20;;;;;;;28.42;4.85;;;6.00;99.90;;;;;;4970149;28;20097;-61
2023/01/30 08:35:46;;;;;;;20.55;4.90;;;6.10;99.90;;;;;;4970018;28;20518;-61
2023/01/30 08:38:12;;;;;;;23.42;4.28;;;5.90;99.90;;;;;;4969711;28;20070;-60
2023/01/30 08:40:38;;;;;;;23.30;4.40;;;6.10;99.90;;;;;;4969446;28;20047;-61
2023/01/30 08:43:04;;;;;;;20.38;4.55;;;6.00;99.90;;;;;;4969662;28;20092;-60
2023/01/30 08:45:30;;;;;;;27.55;4.90;;;6.00;99.90;;;;;;4971149;28;21134;-59
2023/01/30 08:48:00;;;;;;;21.05;4.20;;;6.00;99.90;;;;;;4992769;28;20373;-60
2023/01/30 08:50:26;;;;;;;29.60;6.20;;;6.10;99.90;;;;;;4969134;28;20513;-56
2023/01/30 08:52:52;;;;;;;20.80;4.43;;;6.30;99.90;;;;;;4969471;28;20038;-58
2023/01/30 08:55:18;;;;;;;31.35;6.10;;;6.10;99.90;;;;;;4952256;28;20050;-61
2023/01/30 08:57:43;;;;;;;27.40;4.95;;;6.30;99.90;;;;;;4969110;28;20043;-60
2023/01/30 09:00:10;;;;;;;22.20;4.97;;;6.10;99.90;;;;;;4968163;28;20098;-61
2023/01/30 09:02:36;;;;;;;25.17;5.63;;;6.30;99.90;;;;;;4969076;28;20356;-58
2023/01/30 09:05:02;;;;;;;26.77;4.85;;;6.30;99.90;;;;;;4951333;28;20125;-61
2023/01/30 09:07:28;;;;;;;24.23;5.13;;;6.40;99.90;;;;;;4969121;28;20039;-61
2023/01/30 09:09:54;;;;;;;22.50;4.28;;;6.40;99.90;;;;;;4968797;28;20058;-60
2023/01/30 09:12:20;;;;;;;30.90;4.07;;;6.50;99.90;;;;;;4984197;28;20070;-61
2023/01/30 09:14:46;;;;;;;19.63;3.88;;;6.40;99.90;;;;;;4968427;28;20042;-61
2023/01/30 09:17:12;;;;;;;28.50;4.80;;;6.40;99.90;;;;;;4985678;28;20093;-60
2023/01/30 09:19:38;;;;;;;21.25;4.28;;;6.40;99.90;;;;;;4988484;28;20043;-62
2023/01/30 09:22:06;;;;;;;20.98;4.40;;;6.50;99.90;;;;;;4988176;28;20050;-58
2023/01/30 09:24:32;;;;;;;22.25;4.78;;;6.40;99.90;;;;;;4988511;28;20454;-62
2023/01/30 09:26:58;;;;;;;28.75;4.88;;;6.50;99.90;;;;;;4988334;28;20463;-62
2023/01/30 09:29:25;;;;;;;29.08;5.68;;;6.50;99.90;;;;;;4987726;28;20081;-60
2023/01/30 09:31:50;;;;;;;20.88;4.82;;;6.50;99.90;;;;;;4988300;28;20050;-62
2023/01/30 09:34:16;;;;;;;19.73;4.65;;;6.40;99.90;;;;;;4987444;28;20061;-58
2023/01/30 09:36:43;;;;;;;20.27;5.18;;;6.20;99.90;;;;;;4987772;28;20491;-63
2023/01/30 09:39:08;;;;;;;27.42;5.05;;;6.60;99.90;;;;;;4988085;28;20038;-58
2023/01/30 09:41:49;;;;;;;19.58;4.78;;;6.40;99.90;;;;;;4988167;28;20125;-62
2023/01/30 09:44:50;;;;;;;24.10;4.55;;;6.30;99.90;;;;;;4961384;28;20085;-61
2023/01/30 09:47:37;;;;;;;23.75;5.07;;;6.50;99.90;;;;;;4979565;28;20122;-62
2023/01/30 09:50:33;;;;;;;25.38;5.00;;;6.30;99.90;;;;;;4987895;28;20042;-61
2023/01/30 09:53:38;;;;;;;26.15;4.93;;;6.40;99.90;;;;;;4988283;28;20201;-63
2023/01/30 09:56:05;;;;;;;34.40;5.35;;;6.30;99.90;;;;;;4987595;28;20054;-62
2023/01/30 09:58:41;;;;;;;26.38;5.40;;;6.20;99.90;;;;;;4988133;28;20068;-62
2023/01/30 10:01:19;;;;;;;25.75;5.15;;;6.00;99.90;;;;;;4987250;28;20387;-62
2023/01/30 10:04:23;;;;;;;23.65;4.32;;;6.00;99.90;;;;;;4987444;28;20060;-63
2023/01/30 10:07:22;;;;;;;23.05;4.47;;;6.30;99.90;;;;;;4947354;28;20050;-61
2023/01/30 10:10:02;;;;;;;30.77;6.13;;;6.40;99.90;;;;;;4987244;28;20077;-62
2023/01/30 10:12:44;;;;;;;29.83;5.20;;;6.40;99.90;;;;;;4987605;28;20089;-62
2023/01/30 10:15:22;;;;;;;26.23;5.00;;;6.50;99.90;;;;;;4987048;28;20143;-62
2023/01/30 10:18:07;;;;;;;26.92;5.65;;;6.50;99.90;;;;;;4987252;28;20054;-62
2023/01/30 10:20:51;;;;;;;19.95;4.88;;;7.00;99.90;;;;;;4987770;28;20089;-62
2023/01/30 10:23:28;;;;;;;26.73;5.22;;;7.70;99.90;;;;;;4987536;28;20122;-63
2023/01/30 10:26:03;;;;;;;29.92;5.43;;;7.50;99.90;;;;;;4988049;28;20427;-62
2023/01/30 10:28:37;;;;;;;;;;;8.00;99.90;;;;;;4988641;28;20455;-63
2023/01/30 10:31:11;;;;;;;24.05;4.97;;;7.80;99.90;;;;;;4989303;28;20335;-60
2023/01/30 10:34:19;;;;;;;24.17;4.80;;;8.00;99.90;;;;;;4991052;28;20411;-62
2023/01/30 10:36:56;;;;;;;25.38;5.00;;;8.00;99.90;;;;;;4980688;28;20137;-62
2023/01/30 10:39:25;;;;;;;27.20;4.85;;;8.00;99.90;;;;;;4990913;28;20146;-62
2023/01/30 10:42:00;;;;;;;25.92;4.93;;;7.70;99.90;;;;;;4990647;28;20054;-62
2023/01/30 10:44:26;;;;;;;13.40;2.70;;;7.40;99.90;;;;;;4990795;28;20112;-62
2023/01/30 10:47:07;;;;;;;12.55;2.80;;;6.50;99.90;;;;;;4984436;28;20046;-63
2023/01/30 10:50:04;;;;;;;15.95;3.30;;;6.30;99.90;;;;;;4971282;28;20047;-63
2023/01/30 10:52:56;;;;;;;12.85;2.60;;;6.50;99.90;;;;;;4944043;28;20073;-62
2023/01/30 10:55:34;;;;;;;12.45;2.45;;;7.20;99.90;;;;;;4956426;28;20174;-62
2023/01/30 10:58:38;;;;;;;11.02;2.50;;;7.90;99.90;;;;;;4971256;28;20062;-62
2023/01/30 11:01:23;;;;;;;9.32;1.85;;;8.40;99.90;;;;;;4970321;28;20047;-62
2023/01/30 11:04:03;;;;;;;6.90;1.95;;;8.10;99.90;;;;;;4971220;28;20105;-63
2023/01/30 11:06:31;;;;;;;8.45;1.40;;;8.30;99.90;;;;;;4971745;28;20043;-60
2023/01/30 11:08:57;;;;;;;11.45;2.00;;;8.80;99.90;;;;;;4971077;28;20057;-62
2023/01/30 11:11:41;;;;;;;10.30;2.47;;;8.70;99.90;;;;;;4970756;28;20038;-62
2023/01/30 11:14:09;;;;;;;10.65;2.40;;;8.50;99.90;;;;;;4969883;28;20051;-63
2023/01/30 11:16:53;;;;;;;14.18;3.15;;;8.60;99.90;;;;;;4970372;28;20597;-62
2023/01/30 11:19:22;;;;;;;13.52;2.60;;;8.70;99.90;;;;;;4970937;28;20399;-62
2023/01/30 11:21:55;;;;;;;8.38;2.25;;;8.60;99.90;;;;;;4970446;28;20098;-63
2023/01/30 11:24:27;;;;;;;14.32;2.83;;;8.50;99.90;;;;;;4968992;28;20059;-62
2023/01/30 11:26:54;;;;;;;13.80;2.78;;;8.50;99.90;;;;;;4953559;28;20054;-62
2023/01/30 11:29:30;;;;;;;12.38;2.40;;;8.70;99.90;;;;;;4969874;28;20058;-62
2023/01/30 11:32:04;;;;;;;16.85;2.97;;;8.90;99.90;;;;;;4953685;28;20078;-57
2023/01/30 11:34:30;;;;;;;14.70;2.80;;;8.70;99.90;;;;;;4971156;28;20046;-61
2023/01/30 11:37:34;;;;;;;16.33;2.88;;;8.30;99.90;;;;;;4970600;28;20129;-63
2023/01/30 11:40:25;;;;;;;17.67;3.95;;;7.80;99.90;;;;;;4891632;29;20145;-62
2023/01/30 11:43:00;;;;;;;17.10;3.58;;;7.60;99.90;;;;;;4891399;29;20115;-62
2023/01/30 11:45:28;;;;;;;14.85;2.83;;;7.50;99.90;;;;;;4947935;28;20144;-62
2023/01/30 11:48:00;;;;;;;15.07;3.35;;;7.20;99.90;;;;;;4978369;28;20049;-64
2023/01/30 11:50:41;;;;;;;17.77;3.13;;;7.20;99.90;;;;;;4970341;28;20125;-64
2023/01/30 11:53:20;;;;;;;18.63;3.67;;;7.00;99.90;;;;;;4952707;28;20113;-64
2023/01/30 11:55:46;;;;;;;16.95;3.13;;;7.20;99.90;;;;;;4970053;28;20460;-64
2023/01/30 11:58:13;;;;;;;14.95;3.53;;;7.10;99.90;;;;;;4969097;28;20043;-62
2023/01/30 12:00:42;;;;;;;18.85;3.75;;;7.00;99.90;;;;;;4969110;28;20065;-64
2023/01/30 12:03:21;;;;;;;17.95;3.60;;;7.00;99.90;;;;;;4969781;28;20043;-64
2023/01/30 12:05:47;;;;;;;16.27;2.90;;;7.10;99.90;;;;;;4969954;28;20046;-60
2023/01/30 12:08:34;;;;;;;15.23;3.17;;;7.00;99.90;;;;;;4968638;28;20100;-62
2023/01/30 12:11:01;;;;;;;18.08;3.70;;;6.80;99.90;;;;;;4969031;28;20062;-61
2023/01/30 12:13:38;;;;;;;25.08;4.60;;;6.80;99.90;;;;;;4968508;28;20163;-64
2023/01/30 12:16:49;;;;;;;15.82;3.40;;;6.80;99.90;;;;;;4968413;28;20061;-64
2023/01/30 12:19:34;;;;;;;21.40;4.32;;;7.00;99.90;;;;;;4889257;29;20088;-64
2023/01/30 12:22:10;;;;;;;21.00;3.92;;;6.80;99.90;;;;;;4889579;29;20052;-61
2023/01/30 12:24:57;;;;;;;21.05;3.95;;;6.90;99.90;;;;;;4946664;28;20504;-64
2023/01/30 12:27:51;;;;;;;24.67;4.47;;;6.90;99.90;;;;;;4969962;28;20046;-64
2023/01/30 12:30:26;;;;;;;24.10;4.63;;;7.00;99.90;;;;;;4968930;28;20133;-64
2023/01/30 12:32:59;;;;;;;17.58;4.00;;;7.00;99.90;;;;;;4969609;28;20047;-64
2023/01/30 12:35:34;;;;;;;21.20;4.72;;;6.90;99.90;;;;;;4968426;28;20055;-61
2023/01/30 12:38:23;;;;;;;25.20;4.78;;;6.90;99.90;;;;;;4969904;28;20099;-64
2023/01/30 12:41:07;;;;;;;22.83;4.53;;;7.20;99.90;;;;;;4969288;28;20071;-64
2023/01/30 12:43:55;;;;;;;24.60;4.83;;;7.20;99.90;;;;;;4968216;28;20053;-63
2023/01/30 12:46:32;;;;;;;22.65;4.60;;;7.20;99.90;;;;;;4976781;28;20387;-65
2023/01/30 12:49:30;;;;;;;21.58;4.25;;;7.40;99.90;;;;;;4987692;28;20080;-65
2023/01/30 12:52:02;;;;;;;19.90;4.50;;;7.30;99.90;;;;;;4988049;28;20050;-64
2023/01/30 12:55:05;;;;;;;20.92;4.13;;;7.00;99.90;;;;;;4984234;28;20039;-64
2023/01/30 12:57:34;;;;;;;15.85;4.07;;;7.00;99.90;;;;;;4951439;28;20090;-64
2023/01/30 13:00:05;;;;;;;20.85;4.72;;;7.30;99.90;;;;;;4970665;28;20185;-63
2023/01/30 13:02:50;;;;;;;15.68;3.92;;;7.30;99.90;;;;;;4985991;28;20042;-60
2023/01/30 13:05:52;;;;;;;29.27;4.63;;;7.30;99.90;;;;;;4985824;28;20046;-65
2023/01/30 13:08:46;;;;;;;24.00;4.32;;;7.50;99.90;;;;;;4969210;28;20042;-64
2023/01/30 13:11:39;;;;;;;21.70;4.75;;;7.50;99.90;;;;;;4984613;28;20058;-64
2023/01/30 13:14:20;;;;;;;21.50;4.97;;;7.30;99.90;;;;;;4986361;28;20049;-60